createdAt,value
2022-12-05T00:01:19.122Z,24.80
2022-12-05T00:03:47.180Z,24.30
2022-12-05T00:06:13.934Z,23.17
2022-12-05T00:08:40.943Z,24.37
2022-12-05T00:11:16.090Z,24.70
2022-12-05T00:13:43.694Z,24.60
2022-12-05T00:16:12.641Z,24.30
2022-12-05T00:18:39.751Z,25.03
2022-12-05T00:21:07.785Z,26.67
2022-12-05T00:23:34.522Z,25.20
2022-12-05T00:26:05.406Z,23.40
2022-12-05T00:28:33.521Z,24.93
2022-12-05T00:31:05.984Z,24.60
2022-12-05T00:33:33.058Z,24.43
2022-12-05T00:36:05.092Z,24.10
2022-12-05T00:38:32.162Z,23.10
2022-12-05T00:41:12.941Z,24.07
2022-12-05T00:43:40.251Z,24.77
2022-12-05T00:46:12.984Z,23.10
2022-12-05T00:48:40.644Z,24.40
2022-12-05T00:51:13.900Z,24.17
2022-12-05T00:53:41.699Z,24.30
2022-12-05T00:56:11.649Z,23.70
2022-12-05T00:58:38.757Z,24.10
2022-12-05T01:01:11.450Z,25.07
2022-12-05T01:03:38.793Z,24.07
2022-12-05T01:06:06.524Z,23.40
2022-12-05T01:08:34.756Z,23.73
2022-12-05T01:11:02.444Z,23.57
2022-12-05T01:13:29.782Z,24.00
2022-12-05T01:15:56.924Z,24.47
2022-12-05T01:18:24.657Z,23.17
2022-12-05T01:20:52.437Z,22.60
2022-12-05T01:23:19.814Z,22.03
2022-12-05T01:25:49.012Z,21.10
2022-12-05T01:28:16.656Z,21.93
2022-12-05T01:30:49.893Z,21.07
2022-12-05T01:33:17.782Z,22.07
2022-12-05T01:35:44.736Z,21.70
2022-12-05T01:38:12.758Z,21.70
2022-12-05T01:40:39.910Z,22.27
2022-12-05T01:43:18.392Z,20.60
2022-12-05T01:45:46.302Z,21.90
2022-12-05T01:48:23.029Z,22.30
2022-12-05T01:50:50.927Z,18.90
2022-12-05T01:53:18.517Z,21.60
2022-12-05T01:55:47.801Z,21.20
2022-12-05T01:58:16.005Z,19.57
2022-12-05T02:00:43.939Z,19.63
2022-12-05T02:03:17.060Z,20.70
2022-12-05T02:05:46.249Z,19.90
2022-12-05T02:08:13.190Z,20.07
2022-12-05T02:10:52.933Z,19.70
2022-12-05T02:13:58.424Z,19.70
2022-12-05T02:16:53.951Z,18.60
2022-12-05T02:19:50.233Z,19.27
2022-12-05T02:22:32.527Z,19.27
2022-12-05T02:25:17.438Z,17.70
2022-12-05T02:27:47.330Z,18.80
2022-12-05T02:30:22.199Z,19.30
2022-12-05T02:33:07.102Z,20.67
2022-12-05T02:36:05.225Z,18.80
2022-12-05T02:38:45.034Z,18.50
2022-12-05T02:41:27.005Z,19.07
2022-12-05T02:44:02.567Z,19.47
2022-12-05T02:46:32.049Z,19.67
2022-12-05T02:49:07.322Z,18.50
2022-12-05T02:51:39.117Z,17.97
2022-12-05T02:54:10.080Z,20.00
2022-12-05T02:56:38.191Z,19.77
2022-12-05T02:59:04.973Z,19.50
2022-12-05T03:01:33.267Z,20.00
2022-12-05T03:04:04.177Z,17.10
2022-12-05T03:06:47.124Z,18.00
2022-12-05T03:09:20.723Z,18.37
2022-12-05T03:11:47.864Z,18.13
2022-12-05T03:14:25.832Z,19.43
2022-12-05T03:16:56.347Z,18.70
2022-12-05T03:19:58.893Z,19.40
2022-12-05T03:22:26.187Z,17.20
2022-12-05T03:24:53.445Z,18.90
2022-12-05T03:27:39.575Z,17.50
2022-12-05T03:30:10.179Z,19.50
2022-12-05T03:33:02.784Z,20.37
2022-12-05T03:35:35.337Z,19.27
2022-12-05T03:38:22.319Z,18.40
2022-12-05T03:40:56.669Z,18.70
2022-12-05T03:43:45.712Z,17.87
2022-12-05T03:46:27.448Z,18.03
2022-12-05T03:49:16.592Z,19.40
2022-12-05T03:51:53.553Z,18.97
2022-12-05T03:54:51.032Z,19.37
2022-12-05T03:57:21.542Z,17.67
2022-12-05T04:00:10.029Z,18.43
2022-12-05T04:03:06.154Z,17.90
2022-12-05T04:05:54.030Z,18.30
2022-12-05T04:08:31.732Z,17.77
2022-12-05T04:11:03.344Z,18.37
2022-12-05T04:13:36.308Z,18.60
2022-12-05T04:16:34.387Z,18.30
2022-12-05T04:19:15.237Z,19.03
2022-12-05T04:21:46.510Z,19.73
2022-12-05T04:24:41.364Z,20.90
2022-12-05T04:27:41.208Z,17.87
2022-12-05T04:30:11.754Z,17.70
2022-12-05T04:32:42.851Z,16.50
2022-12-05T04:35:18.779Z,18.70
2022-12-05T04:37:49.899Z,20.40
2022-12-05T04:40:26.548Z,18.70
2022-12-05T04:42:55.666Z,17.50
2022-12-05T04:45:25.773Z,18.90
2022-12-05T04:47:58.902Z,19.07
2022-12-05T04:50:29.662Z,18.87
2022-12-05T04:52:57.998Z,18.63
2022-12-05T04:55:26.114Z,18.43
2022-12-05T04:58:09.503Z,18.67
2022-12-05T05:00:51.944Z,17.07
2022-12-05T05:03:28.841Z,18.07
2022-12-05T05:05:56.826Z,16.53
2022-12-05T05:08:28.902Z,18.87
2022-12-05T05:11:06.702Z,18.00
2022-12-05T05:13:33.421Z,16.47
2022-12-05T05:16:00.554Z,18.00
2022-12-05T05:18:27.414Z,17.40
2022-12-05T05:20:54.189Z,16.40
2022-12-05T05:23:20.908Z,18.10
2022-12-05T05:25:55.804Z,17.27
2022-12-05T05:28:23.229Z,17.20
2022-12-05T05:30:50.199Z,17.00
2022-12-05T05:33:17.025Z,18.53
2022-12-05T05:35:44.175Z,17.60
2022-12-05T05:38:11.024Z,18.93
2022-12-05T05:40:37.740Z,20.17
2022-12-05T05:43:04.875Z,17.23
2022-12-05T05:45:31.710Z,17.57
2022-12-05T05:47:58.530Z,17.40
2022-12-05T05:50:25.272Z,19.10
2022-12-05T05:52:52.005Z,18.07
2022-12-05T05:55:19.150Z,17.93
2022-12-05T05:57:46.583Z,18.33
2022-12-05T06:00:14.109Z,17.97
2022-12-05T06:02:41.478Z,18.10
2022-12-05T06:05:08.563Z,16.47
2022-12-05T06:07:35.372Z,17.53
2022-12-05T06:10:02.399Z,18.40
2022-12-05T06:12:29.379Z,17.87
2022-12-05T06:14:56.220Z,17.37
2022-12-05T06:17:23.393Z,16.90
2022-12-05T06:19:50.101Z,16.63
2022-12-05T06:22:16.786Z,17.13
2022-12-05T06:24:43.557Z,16.67
2022-12-05T06:27:10.719Z,17.70
2022-12-05T06:29:37.485Z,19.20
2022-12-05T06:32:04.612Z,18.03
2022-12-05T06:34:32.616Z,18.20
2022-12-05T06:37:02.510Z,17.50
2022-12-05T06:39:29.685Z,18.17
2022-12-05T06:41:56.569Z,18.07
2022-12-05T06:44:26.831Z,17.27
2022-12-05T06:46:54.431Z,21.10
2022-12-05T06:49:25.074Z,22.50
2022-12-05T06:51:56.505Z,21.20
2022-12-05T06:54:23.220Z,18.50
2022-12-05T06:56:49.985Z,17.17
2022-12-05T06:59:17.162Z,18.30
2022-12-05T07:01:44.033Z,17.43
2022-12-05T07:04:17.038Z,17.03
2022-12-05T07:06:50.281Z,16.00
2022-12-05T07:09:19.666Z,15.77
2022-12-05T07:11:50.543Z,15.90
2022-12-05T07:14:46.416Z,15.80
2022-12-05T07:17:04.903Z,14.70
2022-12-05T07:19:31.903Z,15.00
2022-12-05T07:21:58.669Z,16.83
2022-12-05T07:24:25.705Z,15.30
2022-12-05T07:26:52.522Z,15.37
2022-12-05T07:29:19.483Z,16.10
2022-12-05T07:31:46.340Z,14.80
2022-12-05T07:34:13.102Z,16.40
2022-12-05T07:36:40.263Z,15.83
2022-12-05T07:39:07.426Z,15.07
2022-12-05T07:41:35.706Z,15.00
2022-12-05T07:44:02.540Z,14.13
2022-12-05T07:46:29.991Z,14.50
2022-12-05T07:48:57.451Z,14.90
2022-12-05T07:51:24.808Z,15.10
2022-12-05T07:53:52.502Z,14.10
2022-12-05T07:56:19.919Z,13.03
2022-12-05T07:58:49.056Z,13.30
2022-12-05T08:01:17.227Z,12.90
2022-12-05T08:03:46.048Z,12.93
2022-12-05T08:06:15.627Z,13.83
2022-12-05T08:08:42.927Z,14.47
2022-12-05T08:11:15.434Z,14.33
2022-12-05T08:13:43.047Z,14.23
2022-12-05T08:16:14.796Z,14.23
2022-12-05T08:18:42.306Z,13.73
2022-12-05T08:21:15.751Z,14.40
2022-12-05T08:23:43.436Z,14.20
2022-12-05T08:26:16.285Z,15.87
2022-12-05T08:28:44.265Z,15.03
2022-12-05T08:31:13.680Z,14.40
2022-12-05T08:33:41.120Z,14.83
2022-12-05T08:36:10.703Z,15.77
2022-12-05T08:38:37.462Z,14.13
2022-12-05T08:41:06.343Z,15.50
2022-12-05T08:43:33.838Z,15.43
2022-12-05T08:46:01.735Z,14.70
2022-12-05T08:48:29.970Z,14.07
2022-12-05T08:50:57.345Z,13.77
2022-12-05T08:53:24.523Z,12.40
2022-12-05T08:55:51.342Z,15.40
2022-12-05T08:58:18.047Z,14.57
2022-12-05T09:00:44.824Z,15.00
2022-12-05T09:03:12.130Z,14.33
2022-12-05T09:05:39.303Z,14.13
2022-12-05T09:08:06.182Z,14.57
2022-12-05T09:10:32.982Z,15.77
2022-12-05T09:13:00.110Z,14.47
2022-12-05T09:15:27.032Z,14.70
2022-12-05T09:17:53.850Z,13.23
2022-12-05T09:20:20.574Z,13.97
2022-12-05T09:22:47.264Z,14.07
2022-12-05T09:25:14.308Z,14.30
2022-12-05T09:27:41.060Z,16.60
2022-12-05T09:30:09.315Z,15.03
2022-12-05T09:32:36.016Z,15.67
2022-12-05T09:35:02.992Z,14.80
2022-12-05T09:37:39.300Z,15.40
2022-12-05T09:40:07.983Z,14.83
2022-12-05T09:42:40.745Z,15.23
2022-12-05T09:45:32.443Z,14.60
2022-12-05T09:48:04.936Z,15.53
2022-12-05T09:50:40.148Z,15.50
2022-12-05T09:53:09.891Z,14.87
2022-12-05T09:55:43.654Z,17.20
2022-12-05T09:58:19.638Z,19.07
2022-12-05T10:00:46.990Z,17.63
2022-12-05T10:03:27.914Z,17.70
2022-12-05T10:06:07.051Z,17.73
2022-12-05T10:09:05.598Z,16.70
2022-12-05T10:11:43.609Z,17.90
2022-12-05T10:14:38.534Z,17.27
2022-12-05T10:17:23.657Z,15.20
2022-12-05T10:19:56.318Z,15.57
2022-12-05T10:22:30.586Z,15.83
2022-12-05T10:25:03.333Z,14.77
2022-12-05T10:27:40.291Z,14.50
2022-12-05T10:30:07.895Z,14.57
2022-12-05T10:32:53.716Z,14.30
2022-12-05T10:35:28.037Z,14.83
2022-12-05T10:37:59.005Z,16.00
2022-12-05T10:40:39.170Z,14.17
2022-12-05T10:43:08.283Z,15.27
2022-12-05T10:45:44.392Z,13.80
2022-12-05T10:48:13.895Z,14.27
2022-12-05T10:50:42.795Z,15.77
2022-12-05T10:53:15.271Z,12.77
2022-12-05T10:56:06.609Z,13.27
2022-12-05T10:58:32.107Z,14.23
2022-12-05T11:01:08.882Z,15.33
2022-12-05T11:03:39.526Z,13.60
2022-12-05T11:06:23.896Z,14.77
2022-12-05T11:09:33.251Z,13.53
2022-12-05T11:12:05.917Z,14.27
2022-12-05T11:14:34.499Z,13.70
2022-12-05T11:17:03.025Z,14.50
2022-12-05T11:19:32.071Z,14.07
2022-12-05T11:21:59.488Z,13.27
2022-12-05T11:24:28.842Z,13.90
2022-12-05T11:26:57.811Z,15.60
2022-12-05T11:29:37.566Z,16.13
2022-12-05T11:32:15.947Z,16.17
2022-12-05T11:34:51.593Z,17.43
2022-12-05T11:37:30.479Z,15.10
2022-12-05T11:39:57.245Z,15.37
2022-12-05T11:42:50.818Z,15.80
2022-12-05T11:45:27.437Z,14.17
2022-12-05T11:48:03.227Z,15.87
2022-12-05T11:50:46.045Z,13.60
2022-12-05T11:53:28.092Z,13.33
2022-12-05T11:56:07.162Z,15.27
2022-12-05T11:58:49.153Z,13.40
2022-12-05T12:01:31.164Z,13.87
2022-12-05T12:04:27.326Z,13.90
2022-12-05T12:07:19.000Z,14.60
2022-12-05T12:09:54.747Z,12.83
2022-12-05T12:12:37.404Z,12.73
2022-12-05T12:15:30.115Z,12.83
2022-12-05T12:18:02.568Z,13.60
2022-12-05T12:21:00.342Z,14.07
2022-12-05T12:23:30.095Z,15.17
2022-12-05T12:26:09.682Z,13.50
2022-12-05T12:28:48.253Z,17.67
2022-12-05T12:31:26.951Z,18.57
2022-12-05T12:34:27.262Z,14.73
2022-12-05T12:36:56.926Z,15.30
2022-12-05T12:39:42.379Z,14.17
2022-12-05T12:42:33.643Z,13.43
2022-12-05T12:45:17.782Z,14.27
2022-12-05T12:48:05.891Z,16.83
2022-12-05T12:50:40.285Z,13.47
2022-12-05T12:53:10.874Z,13.13
2022-12-05T12:56:05.591Z,13.67
2022-12-05T12:58:47.026Z,13.07
2022-12-05T13:01:26.297Z,13.57
2022-12-05T13:04:02.552Z,13.27
2022-12-05T13:06:55.043Z,12.33
2022-12-05T13:09:51.675Z,13.00
2022-12-05T13:12:26.398Z,13.70
2022-12-05T13:15:01.892Z,14.50
2022-12-05T13:17:30.509Z,14.70
2022-12-05T13:19:57.757Z,13.57
2022-12-05T13:22:27.913Z,13.83
2022-12-05T13:24:55.169Z,13.73
2022-12-05T13:27:27.724Z,13.00
2022-12-05T13:30:01.353Z,14.53
2022-12-05T13:32:36.311Z,15.90
2022-12-05T13:35:09.273Z,14.40
2022-12-05T13:37:55.056Z,14.00
2022-12-05T13:40:52.126Z,15.20
2022-12-05T13:43:22.506Z,14.23
2022-12-05T13:46:01.192Z,13.17
2022-12-05T13:48:31.557Z,14.33
2022-12-05T13:51:08.284Z,13.10
2022-12-05T13:53:42.603Z,14.37
2022-12-05T13:56:12.455Z,13.67
2022-12-05T13:58:54.461Z,13.10
2022-12-05T14:01:27.533Z,14.57
2022-12-05T14:03:58.288Z,14.00
2022-12-05T14:06:43.100Z,13.50
2022-12-05T14:09:18.787Z,14.40
2022-12-05T14:12:13.408Z,14.47
2022-12-05T14:15:04.147Z,13.53
2022-12-05T14:17:43.442Z,13.50
2022-12-05T14:20:15.995Z,13.00
2022-12-05T14:23:20.526Z,12.60
2022-12-05T14:25:58.493Z,14.00
2022-12-05T14:28:53.511Z,14.10
2022-12-05T14:31:29.153Z,14.70
2022-12-05T14:34:17.947Z,15.05
2022-12-05T14:37:03.411Z,16.50
2022-12-05T14:39:38.416Z,14.50
2022-12-05T14:42:37.057Z,18.30
2022-12-05T14:45:24.286Z,17.20
2022-12-05T14:47:54.990Z,17.87
2022-12-05T14:50:24.012Z,23.40
2022-12-05T14:53:26.709Z,20.00
2022-12-05T14:55:53.488Z,16.93
2022-12-05T14:58:31.598Z,17.87
2022-12-05T15:01:29.728Z,21.60
2022-12-05T15:03:59.949Z,15.07
2022-12-05T15:06:27.509Z,18.80
2022-12-05T15:09:14.575Z,15.93
2022-12-05T15:11:44.168Z,19.67
2022-12-05T15:14:22.066Z,17.27
2022-12-05T15:16:52.450Z,15.30
2022-12-05T15:19:41.617Z,15.90
2022-12-05T15:22:09.644Z,14.80
2022-12-05T15:24:39.755Z,15.40
2022-12-05T15:27:11.793Z,17.40
2022-12-05T15:29:40.159Z,16.17
2022-12-05T15:32:18.862Z,14.27
2022-12-05T15:35:14.127Z,13.73
2022-12-05T15:38:27.207Z,16.70
2022-12-05T15:40:58.251Z,14.87
2022-12-05T15:43:31.330Z,12.67
2022-12-05T15:46:24.684Z,11.77
2022-12-05T15:48:56.900Z,11.70
2022-12-05T15:51:35.738Z,12.80
2022-12-05T15:54:11.981Z,12.00
2022-12-05T15:56:46.732Z,12.70
2022-12-05T15:59:19.323Z,14.13
2022-12-05T16:01:52.470Z,13.00
2022-12-05T16:04:41.030Z,13.47
2022-12-05T16:07:11.474Z,14.03
2022-12-05T16:09:42.392Z,16.93
2022-12-05T16:12:35.590Z,17.50
2022-12-05T16:15:24.624Z,20.60
2022-12-05T16:18:00.404Z,21.50
2022-12-05T16:20:31.488Z,28.27
2022-12-05T16:23:22.874Z,39.73
2022-12-05T16:25:53.933Z,34.00
2022-12-05T16:28:22.058Z,23.53
2022-12-05T16:30:58.342Z,17.17
2022-12-05T16:33:26.805Z,16.93
2022-12-05T16:35:53.904Z,18.53
2022-12-05T16:38:24.655Z,17.27
2022-12-05T16:40:54.596Z,19.50
2022-12-05T16:43:24.337Z,16.00
2022-12-05T16:45:53.894Z,19.80
2022-12-05T16:48:26.940Z,16.47
2022-12-05T16:51:13.359Z,19.70
2022-12-05T16:53:42.036Z,18.10
2022-12-05T16:56:33.104Z,16.60
2022-12-05T16:59:05.480Z,17.73
2022-12-05T17:01:37.292Z,17.70
2022-12-05T17:04:05.749Z,19.17
2022-12-05T17:06:34.972Z,19.20
2022-12-05T17:09:01.884Z,16.10
2022-12-05T17:11:34.092Z,15.10
2022-12-05T17:14:01.683Z,14.87
2022-12-05T17:16:29.225Z,15.50
2022-12-05T17:18:55.951Z,14.37
2022-12-05T17:21:25.997Z,15.23
2022-12-05T17:23:53.113Z,15.10
2022-12-05T17:26:21.544Z,15.37
2022-12-05T17:28:49.061Z,17.40
2022-12-05T17:31:23.964Z,16.20
2022-12-05T17:33:52.892Z,16.67
2022-12-05T17:36:22.863Z,16.53
2022-12-05T17:38:50.352Z,15.83
2022-12-05T17:41:23.240Z,18.00
2022-12-05T17:43:51.471Z,17.33
2022-12-05T17:46:23.722Z,17.17
2022-12-05T17:48:51.433Z,17.10
2022-12-05T17:51:19.443Z,18.73
2022-12-05T17:53:47.394Z,19.37
2022-12-05T17:56:14.862Z,19.57
2022-12-05T17:58:42.136Z,20.43
2022-12-05T18:01:15.402Z,16.50
2022-12-05T18:03:42.942Z,18.80
2022-12-05T18:06:09.997Z,18.93
2022-12-05T18:08:39.799Z,21.30
2022-12-05T18:11:06.972Z,19.80
2022-12-05T18:13:34.375Z,23.23
2022-12-05T18:16:02.102Z,22.53
2022-12-05T18:18:29.621Z,21.97
2022-12-05T18:21:09.666Z,22.40
2022-12-05T18:23:37.312Z,21.73
2022-12-05T18:26:05.075Z,20.20
2022-12-05T18:28:33.807Z,20.93
2022-12-05T18:31:08.452Z,20.00
2022-12-05T18:33:35.263Z,18.40
2022-12-05T18:36:10.296Z,16.20
2022-12-05T18:38:38.355Z,16.30
2022-12-05T18:41:06.379Z,18.43
2022-12-05T18:43:33.641Z,17.47
2022-12-05T18:46:02.330Z,17.60
2022-12-05T18:48:45.911Z,20.53
2022-12-05T18:51:15.200Z,18.10
2022-12-05T18:53:42.676Z,17.63
2022-12-05T18:56:27.644Z,18.17
2022-12-05T18:59:08.277Z,20.33
2022-12-05T19:01:37.561Z,17.20
2022-12-05T19:04:06.265Z,17.63
2022-12-05T19:06:43.051Z,21.57
2022-12-05T19:09:13.748Z,19.27
2022-12-05T19:11:47.028Z,18.70
2022-12-05T19:14:15.016Z,20.40
2022-12-05T19:16:42.018Z,18.40
2022-12-05T19:19:12.303Z,18.50
2022-12-05T19:21:39.543Z,18.37
2022-12-05T19:24:08.254Z,18.30
2022-12-05T19:26:36.234Z,20.10
2022-12-05T19:29:03.856Z,22.07
2022-12-05T19:31:31.637Z,18.30
2022-12-05T19:34:12.188Z,17.47
2022-12-05T19:36:44.811Z,20.57
2022-12-05T19:39:15.999Z,19.20
2022-12-05T19:41:42.924Z,18.90
2022-12-05T19:44:10.485Z,18.47
2022-12-05T19:46:39.115Z,29.27
2022-12-05T19:49:11.782Z,38.10
2022-12-05T19:51:39.117Z,27.23
2022-12-05T19:54:08.803Z,19.80
2022-12-05T19:56:37.071Z,21.03
2022-12-05T19:59:05.594Z,21.50
2022-12-05T20:01:35.046Z,25.17
2022-12-05T20:04:10.762Z,29.57
2022-12-05T20:06:44.914Z,28.03
2022-12-05T20:09:13.772Z,27.20
2022-12-05T20:11:42.273Z,24.63
2022-12-05T20:14:14.094Z,21.10
2022-12-05T20:16:46.475Z,23.73
2022-12-05T20:19:13.919Z,20.90
2022-12-05T20:21:47.195Z,23.23
2022-12-05T20:24:18.073Z,20.30
2022-12-05T20:27:06.301Z,19.20
2022-12-05T20:29:33.617Z,22.10
2022-12-05T20:32:00.897Z,18.97
2022-12-05T20:34:33.952Z,16.70
2022-12-05T20:37:03.954Z,15.40
2022-12-05T20:39:35.660Z,15.63
2022-12-05T20:42:02.926Z,14.67
2022-12-05T20:44:30.275Z,13.50
2022-12-05T20:46:58.000Z,13.70
2022-12-05T20:49:25.385Z,14.40
2022-12-05T20:51:59.156Z,12.70
2022-12-05T20:54:26.666Z,15.00
2022-12-05T20:56:54.098Z,15.10
2022-12-05T20:59:27.964Z,13.20
2022-12-05T21:01:58.037Z,14.80
2022-12-05T21:04:25.258Z,16.77
2022-12-05T21:06:52.659Z,16.17
2022-12-05T21:09:32.323Z,16.67
2022-12-05T21:12:02.511Z,16.37
2022-12-05T21:14:29.818Z,16.07
2022-12-05T21:16:57.082Z,15.97
2022-12-05T21:19:24.006Z,15.20
2022-12-05T21:21:51.134Z,15.23
2022-12-05T21:24:18.346Z,15.30
2022-12-05T21:26:46.829Z,13.83
2022-12-05T21:29:16.921Z,15.30
2022-12-05T21:31:48.664Z,15.43
2022-12-05T21:34:23.626Z,16.47
2022-12-05T21:36:50.820Z,18.60
2022-12-05T21:39:18.184Z,19.00
2022-12-05T21:41:45.601Z,20.40
2022-12-05T21:44:14.883Z,18.37
2022-12-05T21:46:42.297Z,15.60
2022-12-05T21:49:09.127Z,15.87
2022-12-05T21:51:36.417Z,17.07
2022-12-05T21:54:03.741Z,16.60
2022-12-05T21:56:30.813Z,15.73
2022-12-05T21:59:04.349Z,15.80
2022-12-05T22:01:31.612Z,15.13
2022-12-05T22:03:59.682Z,15.77
2022-12-05T22:06:30.160Z,16.03
2022-12-05T22:08:57.594Z,16.90
2022-12-05T22:11:25.127Z,15.33
2022-12-05T22:13:55.454Z,15.00
2022-12-05T22:16:26.486Z,13.83
2022-12-05T22:18:56.278Z,14.23
2022-12-05T22:21:23.349Z,15.30
2022-12-05T22:23:50.384Z,15.57
2022-12-05T22:26:23.114Z,15.77
2022-12-05T22:28:51.340Z,15.40
2022-12-05T22:31:19.455Z,15.47
2022-12-05T22:33:47.239Z,15.60
2022-12-05T22:36:25.372Z,14.90
2022-12-05T22:38:52.641Z,14.53
2022-12-05T22:41:25.431Z,14.80
2022-12-05T22:43:59.083Z,14.20
2022-12-05T22:46:28.168Z,13.53
2022-12-05T22:48:55.730Z,13.70
2022-12-05T22:51:23.402Z,13.47
2022-12-05T22:53:54.441Z,13.70
2022-12-05T22:56:23.243Z,14.20
2022-12-05T22:58:58.682Z,14.33
2022-12-05T23:01:34.517Z,13.90
2022-12-05T23:04:14.731Z,14.00
2022-12-05T23:07:03.406Z,13.33
2022-12-05T23:09:34.292Z,12.53
2022-12-05T23:12:04.166Z,13.03
2022-12-05T23:14:31.412Z,13.10
2022-12-05T23:19:47.051Z,12.47
2022-12-05T23:22:15.463Z,11.97
2022-12-05T23:24:43.805Z,12.30
2022-12-05T23:27:11.765Z,12.70
2022-12-05T23:29:45.264Z,12.20
2022-12-05T23:32:12.916Z,10.97
2022-12-05T23:34:42.370Z,11.80
2022-12-05T23:37:12.129Z,11.17
2022-12-05T23:39:39.495Z,11.40
2022-12-05T23:42:10.861Z,11.97
2022-12-05T23:44:42.458Z,12.20
2022-12-05T23:47:14.232Z,12.10
2022-12-05T23:50:04.278Z,11.87
2022-12-05T23:52:31.280Z,11.27
2022-12-05T23:55:09.838Z,11.10
2022-12-05T23:57:37.039Z,11.73
